sensor_id;sensor_type;location;lat;lon;timestamp;pressure;altitude;pressure_sealevel;temperature;humidity
74790;BME280;63318;52.406;13.416;2022-12-29T00:00:10;100311.73;;;7.43;82.92
74790;BME280;63318;52.406;13.416;2022-12-29T00:02:39;100310.52;;;7.43;82.66
74790;BME280;63318;52.406;13.416;2022-12-29T00:05:08;100306.25;;;7.43;82.83
74790;BME280;63318;52.406;13.416;2022-12-29T00:07:36;100305.88;;;7.43;82.77
74790;BME280;63318;52.406;13.416;2022-12-29T00:10:07;100303.61;;;7.43;82.62
74790;BME280;63318;52.406;13.416;2022-12-29T00:12:35;100298.64;;;7.44;82.73
74790;BME280;63318;52.406;13.416;2022-12-29T00:15:04;100294.94;;;7.44;82.90
74790;BME280;63318;52.406;13.416;2022-12-29T00:17:32;100292.84;;;7.46;82.60
74790;BME280;63318;52.406;13.416;2022-12-29T00:20:01;100289.98;;;7.47;82.75
74790;BME280;63318;52.406;13.416;2022-12-29T00:22:29;100290.16;;;7.48;82.72
74790;BME280;63318;52.406;13.416;2022-12-29T00:24:58;100283.64;;;7.50;82.32
74790;BME280;63318;52.406;13.416;2022-12-29T00:27:27;100285.02;;;7.51;82.47
74790;BME280;63318;52.406;13.416;2022-12-29T00:29:55;100285.05;;;7.52;82.49
74790;BME280;63318;52.406;13.416;2022-12-29T00:32:23;100281.40;;;7.53;82.40
74790;BME280;63318;52.406;13.416;2022-12-29T00:34:52;100284.45;;;7.56;82.22
74790;BME280;63318;52.406;13.416;2022-12-29T00:37:20;100279.11;;;7.58;82.14
74790;BME280;63318;52.406;13.416;2022-12-29T00:39:49;100274.70;;;7.59;82.01
74790;BME280;63318;52.406;13.416;2022-12-29T00:42:17;100273.48;;;7.60;81.76
74790;BME280;63318;52.406;13.416;2022-12-29T00:44:45;100270.95;;;7.62;82.09
74790;BME280;63318;52.406;13.416;2022-12-29T00:47:13;100271.69;;;7.63;81.85
74790;BME280;63318;52.406;13.416;2022-12-29T00:49:42;100270.49;;;7.67;81.80
74790;BME280;63318;52.406;13.416;2022-12-29T00:52:12;100272.69;;;7.73;81.49
74790;BME280;63318;52.406;13.416;2022-12-29T00:54:43;100268.95;;;7.77;81.36
74790;BME280;63318;52.406;13.416;2022-12-29T00:57:12;100261.77;;;7.81;81.32
74790;BME280;63318;52.406;13.416;2022-12-29T00:59:42;100264.16;;;7.82;81.45
74790;BME280;63318;52.406;13.416;2022-12-29T01:02:11;100263.90;;;7.84;81.46
74790;BME280;63318;52.406;13.416;2022-12-29T01:04:39;100269.02;;;7.87;81.26
74790;BME280;63318;52.406;13.416;2022-12-29T01:07:07;100263.80;;;7.88;81.34
74790;BME280;63318;52.406;13.416;2022-12-29T01:09:36;100255.42;;;7.90;81.11
74790;BME280;63318;52.406;13.416;2022-12-29T01:12:07;100260.08;;;7.92;81.34
74790;BME280;63318;52.406;13.416;2022-12-29T01:14:39;100256.71;;;7.93;80.98
74790;BME280;63318;52.406;13.416;2022-12-29T01:17:07;100253.29;;;7.94;81.05
74790;BME280;63318;52.406;13.416;2022-12-29T01:19:36;100254.30;;;7.96;81.05
74790;BME280;63318;52.406;13.416;2022-12-29T01:22:04;100248.36;;;7.96;80.92
74790;BME280;63318;52.406;13.416;2022-12-29T01:24:32;100251.58;;;7.95;80.82
74790;BME280;63318;52.406;13.416;2022-12-29T01:27:00;100249.08;;;7.94;80.69
74790;BME280;63318;52.406;13.416;2022-12-29T01:29:30;100251.67;;;7.94;80.89
74790;BME280;63318;52.406;13.416;2022-12-29T01:31:58;100252.07;;;7.94;80.92
74790;BME280;63318;52.406;13.416;2022-12-29T01:34:26;100250.40;;;7.95;80.50
74790;BME280;63318;52.406;13.416;2022-12-29T01:36:55;100251.25;;;7.96;80.37
74790;BME280;63318;52.406;13.416;2022-12-29T01:39:23;100250.41;;;7.95;80.44
74790;BME280;63318;52.406;13.416;2022-12-29T01:41:51;100253.28;;;7.94;80.40
74790;BME280;63318;52.406;13.416;2022-12-29T01:44:50;100256.77;;;7.94;80.59
74790;BME280;63318;52.406;13.416;2022-12-29T01:47:25;100254.37;;;7.92;80.48
74790;BME280;63318;52.406;13.416;2022-12-29T01:49:56;100254.80;;;7.90;80.53
74790;BME280;63318;52.406;13.416;2022-12-29T01:52:28;100254.14;;;7.88;80.58
74790;BME280;63318;52.406;13.416;2022-12-29T01:55:01;100248.55;;;7.86;80.74
74790;BME280;63318;52.406;13.416;2022-12-29T01:57:33;100239.47;;;7.84;80.62
74790;BME280;63318;52.406;13.416;2022-12-29T02:00:06;100230.89;;;7.83;80.77
74790;BME280;63318;52.406;13.416;2022-12-29T02:02:35;100230.21;;;7.81;80.51
74790;BME280;63318;52.406;13.416;2022-12-29T02:05:10;100223.79;;;7.81;80.61
74790;BME280;63318;52.406;13.416;2022-12-29T02:07:40;100221.02;;;7.80;80.54
74790;BME280;63318;52.406;13.416;2022-12-29T02:10:09;100219.75;;;7.79;80.30
74790;BME280;63318;52.406;13.416;2022-12-29T02:12:38;100219.36;;;7.78;80.57
74790;BME280;63318;52.406;13.416;2022-12-29T02:15:08;100217.53;;;7.79;80.49
74790;BME280;63318;52.406;13.416;2022-12-29T02:18:03;100216.70;;;7.78;80.37
74790;BME280;63318;52.406;13.416;2022-12-29T02:20:57;100205.60;;;7.79;80.26
74790;BME280;63318;52.406;13.416;2022-12-29T02:23:44;100203.00;;;7.79;80.26
74790;BME280;63318;52.406;13.416;2022-12-29T02:26:33;100208.36;;;7.80;80.28
74790;BME280;63318;52.406;13.416;2022-12-29T02:32:21;100206.48;;;7.81;80.10
74790;BME280;63318;52.406;13.416;2022-12-29T02:35:05;100201.73;;;7.82;79.96
74790;BME280;63318;52.406;13.416;2022-12-29T02:37:41;100201.85;;;7.82;79.84
74790;BME280;63318;52.406;13.416;2022-12-29T02:40:19;100202.34;;;7.83;79.94
74790;BME280;63318;52.406;13.416;2022-12-29T02:42:55;100197.09;;;7.84;79.98
74790;BME280;63318;52.406;13.416;2022-12-29T02:45:32;100194.66;;;7.85;79.89
74790;BME280;63318;52.406;13.416;2022-12-29T02:48:09;100196.58;;;7.87;79.70
74790;BME280;63318;52.406;13.416;2022-12-29T02:50:43;100194.12;;;7.88;79.81
74790;BME280;63318;52.406;13.416;2022-12-29T02:53:17;100190.05;;;7.89;79.72
74790;BME280;63318;52.406;13.416;2022-12-29T02:55:51;100199.78;;;7.91;79.59
74790;BME280;63318;52.406;13.416;2022-12-29T02:58:22;100200.52;;;7.94;79.62
74790;BME280;63318;52.406;13.416;2022-12-29T03:01:02;100204.62;;;7.95;79.28
74790;BME280;63318;52.406;13.416;2022-12-29T03:03:44;100197.77;;;7.97;79.13
74790;BME280;63318;52.406;13.416;2022-12-29T03:06:35;100193.46;;;7.99;79.22
74790;BME280;63318;52.406;13.416;2022-12-29T03:09:17;100194.30;;;8.01;79.33
74790;BME280;63318;52.406;13.416;2022-12-29T03:11:53;100186.17;;;8.02;79.13
74790;BME280;63318;52.406;13.416;2022-12-29T03:14:29;100179.97;;;8.02;79.15
74790;BME280;63318;52.406;13.416;2022-12-29T03:17:04;100171.90;;;8.03;79.26
74790;BME280;63318;52.406;13.416;2022-12-29T03:19:37;100167.04;;;8.03;79.07
74790;BME280;63318;52.406;13.416;2022-12-29T03:22:09;100168.41;;;8.04;79.13
74790;BME280;63318;52.406;13.416;2022-12-29T03:24:43;100166.52;;;8.04;79.00
74790;BME280;63318;52.406;13.416;2022-12-29T03:27:16;100155.58;;;8.04;79.07
74790;BME280;63318;52.406;13.416;2022-12-29T03:29:49;100157.02;;;8.05;79.07
74790;BME280;63318;52.406;13.416;2022-12-29T03:32:20;100158.73;;;8.05;79.21
74790;BME280;63318;52.406;13.416;2022-12-29T03:34:50;100157.85;;;8.05;79.42
74790;BME280;63318;52.406;13.416;2022-12-29T03:37:23;100155.75;;;8.04;79.18
74790;BME280;63318;52.406;13.416;2022-12-29T03:39:53;100152.05;;;8.07;79.21
74790;BME280;63318;52.406;13.416;2022-12-29T03:42:25;100147.18;;;8.08;79.11
74790;BME280;63318;52.406;13.416;2022-12-29T03:44:57;100151.50;;;8.10;79.25
74790;BME280;63318;52.406;13.416;2022-12-29T03:47:25;100149.56;;;8.11;79.21
74790;BME280;63318;52.406;13.416;2022-12-29T03:49:54;100149.14;;;8.13;79.20
74790;BME280;63318;52.406;13.416;2022-12-29T03:52:22;100151.53;;;8.15;79.12
74790;BME280;63318;52.406;13.416;2022-12-29T03:54:50;100150.86;;;8.16;79.11
74790;BME280;63318;52.406;13.416;2022-12-29T03:57:19;100153.85;;;8.18;79.00
74790;BME280;63318;52.406;13.416;2022-12-29T03:59:47;100153.85;;;8.20;78.96
74790;BME280;63318;52.406;13.416;2022-12-29T04:02:18;100163.92;;;8.23;78.95
74790;BME280;63318;52.406;13.416;2022-12-29T04:04:46;100165.89;;;8.25;78.87
74790;BME280;63318;52.406;13.416;2022-12-29T04:07:14;100162.25;;;8.26;78.90
74790;BME280;63318;52.406;13.416;2022-12-29T04:09:43;100152.25;;;8.26;78.93
74790;BME280;63318;52.406;13.416;2022-12-29T04:12:11;100152.30;;;8.27;78.93
74790;BME280;63318;52.406;13.416;2022-12-29T04:14:39;100156.02;;;8.28;78.91
74790;BME280;63318;52.406;13.416;2022-12-29T04:17:08;100154.91;;;8.29;79.05
74790;BME280;63318;52.406;13.416;2022-12-29T04:19:36;100148.71;;;8.29;78.77
74790;BME280;63318;52.406;13.416;2022-12-29T04:22:05;100144.62;;;8.31;78.75
74790;BME280;63318;52.406;13.416;2022-12-29T04:24:33;100154.73;;;8.32;78.78
74790;BME280;63318;52.406;13.416;2022-12-29T04:27:01;100159.89;;;8.33;78.92
74790;BME280;63318;52.406;13.416;2022-12-29T04:29:29;100159.57;;;8.35;78.84
74790;BME280;63318;52.406;13.416;2022-12-29T04:31:57;100147.73;;;8.37;78.89
74790;BME280;63318;52.406;13.416;2022-12-29T04:34:26;100139.77;;;8.40;78.60
74790;BME280;63318;52.406;13.416;2022-12-29T04:36:54;100143.64;;;8.42;78.54
74790;BME280;63318;52.406;13.416;2022-12-29T04:39:22;100139.38;;;8.43;78.71
74790;BME280;63318;52.406;13.416;2022-12-29T04:41:51;100139.38;;;8.45;78.61
74790;BME280;63318;52.406;13.416;2022-12-29T04:44:19;100138.48;;;8.44;78.62
74790;BME280;63318;52.406;13.416;2022-12-29T04:46:48;100141.09;;;8.45;78.30
74790;BME280;63318;52.406;13.416;2022-12-29T04:49:16;100136.38;;;8.47;78.53
74790;BME280;63318;52.406;13.416;2022-12-29T04:51:44;100139.00;;;8.47;78.62
74790;BME280;63318;52.406;13.416;2022-12-29T04:54:12;100140.11;;;8.48;78.60
74790;BME280;63318;52.406;13.416;2022-12-29T04:56:41;100134.40;;;8.50;78.55
74790;BME280;63318;52.406;13.416;2022-12-29T04:59:09;100132.92;;;8.52;78.52
74790;BME280;63318;52.406;13.416;2022-12-29T05:01:37;100121.84;;;8.55;78.24
74790;BME280;63318;52.406;13.416;2022-12-29T05:04:05;100124.60;;;8.57;78.37
74790;BME280;63318;52.406;13.416;2022-12-29T05:06:34;100129.21;;;8.59;78.50
74790;BME280;63318;52.406;13.416;2022-12-29T05:09:03;100131.14;;;8.60;78.37
74790;BME280;63318;52.406;13.416;2022-12-29T05:11:31;100129.05;;;8.62;78.41
74790;BME280;63318;52.406;13.416;2022-12-29T05:14:00;100134.63;;;8.64;78.14
74790;BME280;63318;52.406;13.416;2022-12-29T05:16:28;100129.76;;;8.66;78.27
74790;BME280;63318;52.406;13.416;2022-12-29T05:18:56;100121.61;;;8.66;78.51
74790;BME280;63318;52.406;13.416;2022-12-29T05:21:24;100118.13;;;8.66;78.40
74790;BME280;63318;52.406;13.416;2022-12-29T05:23:53;100108.88;;;8.67;78.35
74790;BME280;63318;52.406;13.416;2022-12-29T05:26:22;100112.38;;;8.68;78.39
74790;BME280;63318;52.406;13.416;2022-12-29T05:28:50;100111.59;;;8.69;78.41
74790;BME280;63318;52.406;13.416;2022-12-29T05:31:18;100097.86;;;8.71;78.24
74790;BME280;63318;52.406;13.416;2022-12-29T05:33:46;100089.50;;;8.71;78.44
74790;BME280;63318;52.406;13.416;2022-12-29T05:36:14;100092.31;;;8.72;78.59
74790;BME280;63318;52.406;13.416;2022-12-29T05:38:43;100090.16;;;8.73;78.48
74790;BME280;63318;52.406;13.416;2022-12-29T05:41:11;100088.77;;;8.76;78.33
74790;BME280;63318;52.406;13.416;2022-12-29T05:43:39;100088.05;;;8.80;78.43
74790;BME280;63318;52.406;13.416;2022-12-29T05:46:07;100082.95;;;8.83;78.42
74790;BME280;63318;52.406;13.416;2022-12-29T05:48:35;100088.55;;;8.87;78.27
74790;BME280;63318;52.406;13.416;2022-12-29T05:51:04;100086.82;;;8.89;78.34
74790;BME280;63318;52.406;13.416;2022-12-29T05:53:33;100085.21;;;8.91;78.24
74790;BME280;63318;52.406;13.416;2022-12-29T05:56:01;100091.48;;;8.92;78.58
74790;BME280;63318;52.406;13.416;2022-12-29T05:58:30;100087.86;;;8.93;78.28
74790;BME280;63318;52.406;13.416;2022-12-29T06:00:58;100081.82;;;8.94;78.30
74790;BME280;63318;52.406;13.416;2022-12-29T06:03:26;100085.98;;;8.98;78.33
74790;BME280;63318;52.406;13.416;2022-12-29T06:05:57;100081.20;;;9.02;78.27
74790;BME280;63318;52.406;13.416;2022-12-29T06:08:25;100075.00;;;9.04;78.16
74790;BME280;63318;52.406;13.416;2022-12-29T06:10:54;100076.66;;;9.05;78.16
74790;BME280;63318;52.406;13.416;2022-12-29T06:13:22;100080.46;;;9.06;78.13
74790;BME280;63318;52.406;13.416;2022-12-29T06:15:51;100083.28;;;9.08;78.06
74790;BME280;63318;52.406;13.416;2022-12-29T06:18:19;100080.23;;;9.09;78.18
74790;BME280;63318;52.406;13.416;2022-12-29T06:20:47;100073.20;;;9.09;78.05
74790;BME280;63318;52.406;13.416;2022-12-29T06:23:15;100069.22;;;9.09;78.02
74790;BME280;63318;52.406;13.416;2022-12-29T06:25:44;100065.84;;;9.10;77.88
74790;BME280;63318;52.406;13.416;2022-12-29T06:28:12;100070.72;;;9.11;77.98
74790;BME280;63318;52.406;13.416;2022-12-29T06:30:40;100072.81;;;9.11;78.06
74790;BME280;63318;52.406;13.416;2022-12-29T06:33:11;100071.82;;;9.12;77.93
74790;BME280;63318;52.406;13.416;2022-12-29T06:35:39;100072.75;;;9.12;78.09
74790;BME280;63318;52.406;13.416;2022-12-29T06:38:07;100070.48;;;9.13;78.12
74790;BME280;63318;52.406;13.416;2022-12-29T06:40:35;100076.91;;;9.14;78.18
74790;BME280;63318;52.406;13.416;2022-12-29T06:43:04;100070.98;;;9.14;78.10
74790;BME280;63318;52.406;13.416;2022-12-29T06:45:32;100069.77;;;9.15;78.10
74790;BME280;63318;52.406;13.416;2022-12-29T06:48:00;100080.02;;;9.15;78.11
74790;BME280;63318;52.406;13.416;2022-12-29T06:50:29;100086.54;;;9.16;78.12
74790;BME280;63318;52.406;13.416;2022-12-29T06:52:57;100087.71;;;9.17;78.01
74790;BME280;63318;52.406;13.416;2022-12-29T06:55:25;100094.63;;;9.16;78.16
74790;BME280;63318;52.406;13.416;2022-12-29T06:57:55;100102.28;;;9.16;78.13
74790;BME280;63318;52.406;13.416;2022-12-29T07:00:24;100102.06;;;9.16;78.07
74790;BME280;63318;52.406;13.416;2022-12-29T07:02:53;100102.06;;;9.14;78.31
74790;BME280;63318;52.406;13.416;2022-12-29T07:05:22;100103.73;;;9.13;78.19
74790;BME280;63318;52.406;13.416;2022-12-29T07:07:50;100103.13;;;9.14;78.29
74790;BME280;63318;52.406;13.416;2022-12-29T07:10:19;100102.73;;;9.15;78.08
74790;BME280;63318;52.406;13.416;2022-12-29T07:12:47;100100.06;;;9.16;78.22
74790;BME280;63318;52.406;13.416;2022-12-29T07:15:15;100101.73;;;9.16;78.21
74790;BME280;63318;52.406;13.416;2022-12-29T07:17:44;100109.92;;;9.17;78.21
74790;BME280;63318;52.406;13.416;2022-12-29T07:20:12;100112.98;;;9.19;78.07
74790;BME280;63318;52.406;13.416;2022-12-29T07:22:40;100111.59;;;9.20;78.16
74790;BME280;63318;52.406;13.416;2022-12-29T07:25:10;100112.34;;;9.24;77.99
74790;BME280;63318;52.406;13.416;2022-12-29T07:27:38;100120.48;;;9.29;78.03
74790;BME280;63318;52.406;13.416;2022-12-29T07:30:08;100116.94;;;9.30;78.09
74790;BME280;63318;52.406;13.416;2022-12-29T07:32:36;100111.95;;;9.31;77.98
74790;BME280;63318;52.406;13.416;2022-12-29T07:35:05;100119.42;;;9.32;77.93
74790;BME280;63318;52.406;13.416;2022-12-29T07:37:34;100113.72;;;9.32;78.07
74790;BME280;63318;52.406;13.416;2022-12-29T07:40:03;100107.79;;;9.32;78.32
74790;BME280;63318;52.406;13.416;2022-12-29T07:42:31;100106.28;;;9.32;78.18
74790;BME280;63318;52.406;13.416;2022-12-29T07:45:00;100104.85;;;9.32;78.11
74790;BME280;63318;52.406;13.416;2022-12-29T07:47:28;100102.25;;;9.31;78.32
74790;BME280;63318;52.406;13.416;2022-12-29T07:49:59;100099.86;;;9.31;78.18
74790;BME280;63318;52.406;13.416;2022-12-29T07:52:27;100106.73;;;9.30;78.36
74790;BME280;63318;52.406;13.416;2022-12-29T07:54:55;100109.01;;;9.31;78.28
74790;BME280;63318;52.406;13.416;2022-12-29T07:57:24;100111.11;;;9.32;78.37
74790;BME280;63318;52.406;13.416;2022-12-29T07:59:52;100113.11;;;9.33;78.12
74790;BME280;63318;52.406;13.416;2022-12-29T08:02:21;100107.39;;;9.34;78.18
74790;BME280;63318;52.406;13.416;2022-12-29T08:04:49;100104.16;;;9.34;78.31
74790;BME280;63318;52.406;13.416;2022-12-29T08:07:17;100098.90;;;9.36;78.49
74790;BME280;63318;52.406;13.416;2022-12-29T08:09:45;100103.05;;;9.38;78.23
74790;BME280;63318;52.406;13.416;2022-12-29T08:12:14;100107.39;;;9.40;78.18
74790;BME280;63318;52.406;13.416;2022-12-29T08:14:42;100106.09;;;9.42;78.37
74790;BME280;63318;52.406;13.416;2022-12-29T08:17:10;100097.05;;;9.45;78.01
74790;BME280;63318;52.406;13.416;2022-12-29T08:19:39;100086.48;;;9.49;78.20
74790;BME280;63318;52.406;13.416;2022-12-29T08:22:07;100080.94;;;9.53;78.13
74790;BME280;63318;52.406;13.416;2022-12-29T08:24:36;100080.97;;;9.56;77.92
74790;BME280;63318;52.406;13.416;2022-12-29T08:27:05;100094.43;;;9.60;77.85
74790;BME280;63318;52.406;13.416;2022-12-29T08:29:33;100103.40;;;9.65;77.64
74790;BME280;63318;52.406;13.416;2022-12-29T08:32:01;100092.90;;;9.68;77.85
74790;BME280;63318;52.406;13.416;2022-12-29T08:34:31;100087.95;;;9.70;77.69
74790;BME280;63318;52.406;13.416;2022-12-29T08:37:00;100088.29;;;9.70;77.75
74790;BME280;63318;52.406;13.416;2022-12-29T08:39:28;100092.40;;;9.70;77.75
74790;BME280;63318;52.406;13.416;2022-12-29T08:41:56;100085.30;;;9.70;77.92
74790;BME280;63318;52.406;13.416;2022-12-29T08:44:25;100077.30;;;9.69;77.85
74790;BME280;63318;52.406;13.416;2022-12-29T08:46:54;100079.14;;;9.69;77.80
74790;BME280;63318;52.406;13.416;2022-12-29T08:49:23;100080.42;;;9.68;77.81
74790;BME280;63318;52.406;13.416;2022-12-29T08:51:51;100079.53;;;9.67;77.71
74790;BME280;63318;52.406;13.416;2022-12-29T08:54:20;100087.60;;;9.66;77.77
74790;BME280;63318;52.406;13.416;2022-12-29T08:56:48;100085.48;;;9.65;77.98
74790;BME280;63318;52.406;13.416;2022-12-29T08:59:16;100086.14;;;9.65;77.64
74790;BME280;63318;52.406;13.416;2022-12-29T09:01:44;100083.20;;;9.67;77.65
74790;BME280;63318;52.406;13.416;2022-12-29T09:04:13;100078.36;;;9.69;77.69
74790;BME280;63318;52.406;13.416;2022-12-29T09:06:41;100081.52;;;9.71;77.58
74790;BME280;63318;52.406;13.416;2022-12-29T09:09:09;100081.23;;;9.72;77.67
74790;BME280;63318;52.406;13.416;2022-12-29T09:11:38;100078.17;;;9.73;77.68
74790;BME280;63318;52.406;13.416;2022-12-29T09:14:07;100076.67;;;9.74;77.59
74790;BME280;63318;52.406;13.416;2022-12-29T09:16:37;100080.55;;;9.76;77.46
74790;BME280;63318;52.406;13.416;2022-12-29T09:19:05;100086.68;;;9.81;77.44
74790;BME280;63318;52.406;13.416;2022-12-29T09:21:34;100086.56;;;9.83;77.49
74790;BME280;63318;52.406;13.416;2022-12-29T09:24:02;100084.11;;;9.85;77.39
74790;BME280;63318;52.406;13.416;2022-12-29T09:26:30;100078.42;;;9.88;77.40
74790;BME280;63318;52.406;13.416;2022-12-29T09:28:59;100075.09;;;9.90;77.49
74790;BME280;63318;52.406;13.416;2022-12-29T09:31:27;100079.52;;;9.94;77.40
74790;BME280;63318;52.406;13.416;2022-12-29T09:33:56;100080.02;;;9.99;77.25
74790;BME280;63318;52.406;13.416;2022-12-29T09:36:24;100076.79;;;10.03;77.40
74790;BME280;63318;52.406;13.416;2022-12-29T09:38:54;100073.05;;;10.07;77.29
74790;BME280;63318;52.406;13.416;2022-12-29T09:41:26;100067.43;;;10.09;77.26
74790;BME280;63318;52.406;13.416;2022-12-29T09:44:05;100063.15;;;10.14;77.25
74790;BME280;63318;52.406;13.416;2022-12-29T09:46:37;100054.91;;;10.17;77.23
74790;BME280;63318;52.406;13.416;2022-12-29T09:49:18;100046.35;;;10.20;77.08
74790;BME280;63318;52.406;13.416;2022-12-29T09:51:52;100051.13;;;10.26;76.95
74790;BME280;63318;52.406;13.416;2022-12-29T09:54:41;100045.38;;;10.30;76.80
74790;BME280;63318;52.406;13.416;2022-12-29T09:57:16;100049.54;;;10.37;76.62
74790;BME280;63318;52.406;13.416;2022-12-29T09:59:48;100051.08;;;10.45;76.52
74790;BME280;63318;52.406;13.416;2022-12-29T10:02:29;100048.79;;;10.55;76.29
74790;BME280;63318;52.406;13.416;2022-12-29T10:04:59;100049.70;;;10.65;76.28
74790;BME280;63318;52.406;13.416;2022-12-29T10:07:36;100047.96;;;10.73;76.36
74790;BME280;63318;52.406;13.416;2022-12-29T10:10:23;100049.82;;;10.81;76.01
74790;BME280;63318;52.406;13.416;2022-12-29T10:13:04;100048.19;;;10.89;75.96
74790;BME280;63318;52.406;13.416;2022-12-29T10:15:56;100046.89;;;10.96;75.92
74790;BME280;63318;52.406;13.416;2022-12-29T10:18:38;100049.93;;;11.03;75.73
74790;BME280;63318;52.406;13.416;2022-12-29T10:21:12;100047.63;;;11.09;75.11
74790;BME280;63318;52.406;13.416;2022-12-29T10:23:47;100042.58;;;11.18;75.41
74790;BME280;63318;52.406;13.416;2022-12-29T10:26:20;100034.74;;;11.24;75.02
74790;BME280;63318;52.406;13.416;2022-12-29T10:28:52;100034.58;;;11.28;74.93
74790;BME280;63318;52.406;13.416;2022-12-29T10:31:25;100035.14;;;11.32;74.47
74790;BME280;63318;52.406;13.416;2022-12-29T10:33:59;100036.98;;;11.36;74.28
74790;BME280;63318;52.406;13.416;2022-12-29T10:36:34;100039.25;;;11.37;74.66
74790;BME280;63318;52.406;13.416;2022-12-29T10:39:10;100035.77;;;11.40;74.29
74790;BME280;63318;52.406;13.416;2022-12-29T10:41:46;100033.05;;;11.44;74.32
74790;BME280;63318;52.406;13.416;2022-12-29T10:44:18;100029.77;;;11.49;74.05
74790;BME280;63318;52.406;13.416;2022-12-29T10:46:55;100035.83;;;11.53;73.83
74790;BME280;63318;52.406;13.416;2022-12-29T10:49:26;100033.53;;;11.58;73.51
74790;BME280;63318;52.406;13.416;2022-12-29T10:51:56;100033.42;;;11.66;72.99
74790;BME280;63318;52.406;13.416;2022-12-29T10:54:29;100033.67;;;11.74;73.35
74790;BME280;63318;52.406;13.416;2022-12-29T10:57:03;100035.36;;;11.81;73.20
74790;BME280;63318;52.406;13.416;2022-12-29T10:59:35;100032.02;;;11.87;73.11
74790;BME280;63318;52.406;13.416;2022-12-29T11:02:21;100040.52;;;11.90;72.61
74790;BME280;63318;52.406;13.416;2022-12-29T11:04:57;100043.10;;;11.92;72.89
74790;BME280;63318;52.406;13.416;2022-12-29T11:07:30;100040.64;;;11.92;73.10
74790;BME280;63318;52.406;13.416;2022-12-29T11:10:18;100044.48;;;11.93;72.94
74790;BME280;63318;52.406;13.416;2022-12-29T11:12:59;100044.35;;;11.94;72.58
74790;BME280;63318;52.406;13.416;2022-12-29T11:15:28;100042.44;;;11.97;72.41
74790;BME280;63318;52.406;13.416;2022-12-29T11:18:07;100041.36;;;11.98;72.31
74790;BME280;63318;52.406;13.416;2022-12-29T11:20:45;100039.96;;;11.99;72.62
74790;BME280;63318;52.406;13.416;2022-12-29T11:23:25;100054.23;;;11.97;72.91
74790;BME280;63318;52.406;13.416;2022-12-29T11:26:16;100053.48;;;11.95;73.13
74790;BME280;63318;52.406;13.416;2022-12-29T11:28:46;100054.12;;;11.89;73.61
74790;BME280;63318;52.406;13.416;2022-12-29T11:31:20;100055.57;;;11.80;74.03
74790;BME280;63318;52.406;13.416;2022-12-29T11:33:49;100060.29;;;11.72;74.45
74790;BME280;63318;52.406;13.416;2022-12-29T11:36:22;100059.73;;;11.66;74.70
74790;BME280;63318;52.406;13.416;2022-12-29T11:38:52;100064.91;;;11.59;75.15
74790;BME280;63318;52.406;13.416;2022-12-29T11:41:24;100071.71;;;11.52;75.53
74790;BME280;63318;52.406;13.416;2022-12-29T11:43:55;100075.89;;;11.43;76.13
74790;BME280;63318;52.406;13.416;2022-12-29T11:46:27;100073.73;;;11.33;76.61
74790;BME280;63318;52.406;13.416;2022-12-29T11:49:00;100073.17;;;11.22;77.23
74790;BME280;63318;52.406;13.416;2022-12-29T11:51:41;100073.81;;;11.10;78.04
74790;BME280;63318;52.406;13.416;2022-12-29T11:54:17;100075.19;;;11.00;78.31
74790;BME280;63318;52.406;13.416;2022-12-29T11:56:47;100074.33;;;10.91;78.82
74790;BME280;63318;52.406;13.416;2022-12-29T11:59:40;100071.19;;;10.84;78.85
74790;BME280;63318;52.406;13.416;2022-12-29T12:02:32;100077.40;;;10.74;79.46
74790;BME280;63318;52.406;13.416;2022-12-29T12:05:10;100076.85;;;10.65;79.94
74790;BME280;63318;52.406;13.416;2022-12-29T12:07:43;100089.35;;;10.60;79.88
74790;BME280;63318;52.406;13.416;2022-12-29T12:10:21;100100.66;;;10.55;80.02
74790;BME280;63318;52.406;13.416;2022-12-29T12:12:51;100104.20;;;10.49;80.25
74790;BME280;63318;52.406;13.416;2022-12-29T12:15:28;100109.69;;;10.41;80.44
74790;BME280;63318;52.406;13.416;2022-12-29T12:18:02;100104.08;;;10.36;81.07
74790;BME280;63318;52.406;13.416;2022-12-29T12:20:41;100107.05;;;10.30;80.85
74790;BME280;63318;52.406;13.416;2022-12-29T12:23:27;100099.27;;;10.25;81.28
74790;BME280;63318;52.406;13.416;2022-12-29T12:26:04;100092.77;;;10.19;81.38
74790;BME280;63318;52.406;13.416;2022-12-29T12:28:45;100089.91;;;10.13;81.69
74790;BME280;63318;52.406;13.416;2022-12-29T12:31:21;100088.31;;;10.06;81.72
74790;BME280;63318;52.406;13.416;2022-12-29T12:33:56;100086.59;;;9.98;81.75
74790;BME280;63318;52.406;13.416;2022-12-29T12:36:38;100081.46;;;9.92;81.77
74790;BME280;63318;52.406;13.416;2022-12-29T12:39:16;100073.39;;;9.86;81.88
74790;BME280;63318;52.406;13.416;2022-12-29T12:41:59;100065.77;;;9.80;82.12
74790;BME280;63318;52.406;13.416;2022-12-29T12:44:37;100073.00;;;9.76;81.96
74790;BME280;63318;52.406;13.416;2022-12-29T12:47:26;100068.19;;;9.72;81.86
74790;BME280;63318;52.406;13.416;2022-12-29T12:50:26;100068.83;;;9.68;82.03
74790;BME280;63318;52.406;13.416;2022-12-29T12:56:11;100064.81;;;9.62;82.24
74790;BME280;63318;52.406;13.416;2022-12-29T12:58:51;100060.48;;;9.60;82.20
74790;BME280;63318;52.406;13.416;2022-12-29T13:01:33;100065.10;;;9.61;82.34
74790;BME280;63318;52.406;13.416;2022-12-29T13:04:24;100069.64;;;9.61;82.16
74790;BME280;63318;52.406;13.416;2022-12-29T13:07:06;100060.53;;;9.62;82.40
74790;BME280;63318;52.406;13.416;2022-12-29T13:09:50;100061.54;;;9.61;82.55
74790;BME280;63318;52.406;13.416;2022-12-29T13:12:31;100063.32;;;9.61;82.54
74790;BME280;63318;52.406;13.416;2022-12-29T13:15:14;100075.02;;;9.61;82.54
74790;BME280;63318;52.406;13.416;2022-12-29T13:17:49;100078.29;;;9.62;82.65